sensor_id;sensor_type;location;lat;lon;timestamp;P1;durP1;ratioP1;P2;durP2;ratioP2
65853;SDS011;52627;48.838;2.402;2022-09-09T00:02:18;6.70;;;1.50;;
65853;SDS011;52627;48.838;2.402;2022-09-09T00:05:32;6.60;;;1.40;;
65853;SDS011;52627;48.838;2.402;2022-09-09T00:08:19;5.50;;;1.60;;
65853;SDS011;52627;48.838;2.402;2022-09-09T00:10:56;9.10;;;1.80;;
65853;SDS011;52627;48.838;2.402;2022-09-09T00:13:41;11.00;;;1.80;;
65853;SDS011;52627;48.838;2.402;2022-09-09T00:16:23;9.70;;;1.90;;
65853;SDS011;52627;48.838;2.402;2022-09-09T00:21:57;9.50;;;2.60;;
65853;SDS011;52627;48.838;2.402;2022-09-09T00:24:46;7.40;;;2.20;;
65853;SDS011;52627;48.838;2.402;2022-09-09T00:27:31;9.60;;;2.70;;
65853;SDS011;52627;48.838;2.402;2022-09-09T00:30:25;8.50;;;2.30;;
65853;SDS011;52627;48.838;2.402;2022-09-09T00:35:34;6.50;;;1.90;;
65853;SDS011;52627;48.838;2.402;2022-09-09T00:38:17;10.90;;;2.20;;
65853;SDS011;52627;48.838;2.402;2022-09-09T00:40:52;8.90;;;1.70;;
65853;SDS011;52627;48.838;2.402;2022-09-09T00:43:26;6.90;;;1.60;;
65853;SDS011;52627;48.838;2.402;2022-09-09T00:46:37;8.00;;;1.90;;
65853;SDS011;52627;48.838;2.402;2022-09-09T00:49:22;8.80;;;1.70;;
65853;SDS011;52627;48.838;2.402;2022-09-09T00:52:15;9.70;;;2.10;;
65853;SDS011;52627;48.838;2.402;2022-09-09T00:57:40;12.70;;;2.00;;
65853;SDS011;52627;48.838;2.402;2022-09-09T01:00:25;7.80;;;1.60;;
65853;SDS011;52627;48.838;2.402;2022-09-09T01:08:58;6.70;;;1.90;;
65853;SDS011;52627;48.838;2.402;2022-09-09T01:11:41;5.90;;;1.80;;
65853;SDS011;52627;48.838;2.402;2022-09-09T01:14:23;7.90;;;2.10;;
65853;SDS011;52627;48.838;2.402;2022-09-09T01:22:55;6.50;;;2.10;;
65853;SDS011;52627;48.838;2.402;2022-09-09T01:28:15;9.10;;;2.60;;
65853;SDS011;52627;48.838;2.402;2022-09-09T01:30:43;9.60;;;2.30;;
65853;SDS011;52627;48.838;2.402;2022-09-09T01:33:14;9.40;;;2.10;;
65853;SDS011;52627;48.838;2.402;2022-09-09T01:38:22;8.10;;;2.30;;
65853;SDS011;52627;48.838;2.402;2022-09-09T01:40:51;9.00;;;2.50;;
65853;SDS011;52627;48.838;2.402;2022-09-09T01:43:20;8.60;;;2.80;;
65853;SDS011;52627;48.838;2.402;2022-09-09T01:45:52;11.60;;;2.60;;
65853;SDS011;52627;48.838;2.402;2022-09-09T01:48:23;10.20;;;2.80;;
65853;SDS011;52627;48.838;2.402;2022-09-09T01:50:51;11.10;;;2.20;;
65853;SDS011;52627;48.838;2.402;2022-09-09T01:53:20;9.40;;;2.20;;
65853;SDS011;52627;48.838;2.402;2022-09-09T02:04:47;5.10;;;1.40;;
65853;SDS011;52627;48.838;2.402;2022-09-09T02:07:42;6.60;;;1.70;;
65853;SDS011;52627;48.838;2.402;2022-09-09T02:10:20;8.90;;;1.90;;
65853;SDS011;52627;48.838;2.402;2022-09-09T02:12:53;8.80;;;2.00;;
65853;SDS011;52627;48.838;2.402;2022-09-09T02:15:35;11.00;;;2.10;;
65853;SDS011;52627;48.838;2.402;2022-09-09T02:18:11;7.60;;;1.60;;
65853;SDS011;52627;48.838;2.402;2022-09-09T02:20:41;7.60;;;1.60;;
65853;SDS011;52627;48.838;2.402;2022-09-09T02:23:11;6.60;;;1.60;;
65853;SDS011;52627;48.838;2.402;2022-09-09T02:25:40;10.80;;;1.60;;
65853;SDS011;52627;48.838;2.402;2022-09-09T02:28:09;9.90;;;1.90;;
65853;SDS011;52627;48.838;2.402;2022-09-09T02:30:39;9.80;;;1.90;;
65853;SDS011;52627;48.838;2.402;2022-09-09T02:33:08;8.60;;;2.00;;
65853;SDS011;52627;48.838;2.402;2022-09-09T02:35:38;8.00;;;1.90;;
65853;SDS011;52627;48.838;2.402;2022-09-09T02:38:10;10.30;;;2.00;;
65853;SDS011;52627;48.838;2.402;2022-09-09T02:40:40;12.70;;;2.00;;
65853;SDS011;52627;48.838;2.402;2022-09-09T02:43:07;11.20;;;2.40;;
65853;SDS011;52627;48.838;2.402;2022-09-09T02:45:41;13.10;;;2.10;;
65853;SDS011;52627;48.838;2.402;2022-09-09T02:48:27;8.60;;;1.80;;
65853;SDS011;52627;48.838;2.402;2022-09-09T02:51:27;7.10;;;2.00;;
65853;SDS011;52627;48.838;2.402;2022-09-09T02:54:23;9.70;;;1.90;;
65853;SDS011;52627;48.838;2.402;2022-09-09T02:57:08;9.60;;;1.80;;
65853;SDS011;52627;48.838;2.402;2022-09-09T02:59:39;8.40;;;2.00;;
65853;SDS011;52627;48.838;2.402;2022-09-09T03:02:07;12.20;;;2.60;;
65853;SDS011;52627;48.838;2.402;2022-09-09T03:04:34;8.00;;;2.10;;
65853;SDS011;52627;48.838;2.402;2022-09-09T03:07:02;16.40;;;2.60;;
65853;SDS011;52627;48.838;2.402;2022-09-09T03:09:30;7.30;;;2.20;;
65853;SDS011;52627;48.838;2.402;2022-09-09T03:11:59;9.90;;;2.40;;
65853;SDS011;52627;48.838;2.402;2022-09-09T03:14:27;10.80;;;2.30;;
65853;SDS011;52627;48.838;2.402;2022-09-09T03:16:54;7.70;;;1.90;;
65853;SDS011;52627;48.838;2.402;2022-09-09T03:19:23;13.20;;;2.60;;
65853;SDS011;52627;48.838;2.402;2022-09-09T03:21:51;10.00;;;2.30;;
65853;SDS011;52627;48.838;2.402;2022-09-09T03:24:19;13.10;;;2.40;;
65853;SDS011;52627;48.838;2.402;2022-09-09T03:26:46;9.60;;;1.90;;
65853;SDS011;52627;48.838;2.402;2022-09-09T03:29:14;7.30;;;2.20;;
65853;SDS011;52627;48.838;2.402;2022-09-09T03:31:43;10.20;;;2.00;;
65853;SDS011;52627;48.838;2.402;2022-09-09T03:34:11;8.50;;;2.40;;
65853;SDS011;52627;48.838;2.402;2022-09-09T03:36:38;8.20;;;2.20;;
65853;SDS011;52627;48.838;2.402;2022-09-09T03:39:06;8.10;;;2.20;;
65853;SDS011;52627;48.838;2.402;2022-09-09T03:41:33;8.80;;;2.70;;
65853;SDS011;52627;48.838;2.402;2022-09-09T03:44:01;8.50;;;2.80;;
65853;SDS011;52627;48.838;2.402;2022-09-09T03:46:29;11.60;;;2.70;;
65853;SDS011;52627;48.838;2.402;2022-09-09T03:48:56;9.20;;;2.70;;
65853;SDS011;52627;48.838;2.402;2022-09-09T03:51:24;10.90;;;3.40;;
65853;SDS011;52627;48.838;2.402;2022-09-09T03:53:51;11.40;;;2.80;;
65853;SDS011;52627;48.838;2.402;2022-09-09T03:56:24;8.30;;;2.70;;
65853;SDS011;52627;48.838;2.402;2022-09-09T03:58:51;9.20;;;2.90;;
65853;SDS011;52627;48.838;2.402;2022-09-09T04:01:19;12.10;;;2.40;;
65853;SDS011;52627;48.838;2.402;2022-09-09T04:03:46;11.30;;;3.10;;
65853;SDS011;52627;48.838;2.402;2022-09-09T04:06:14;14.30;;;2.50;;
65853;SDS011;52627;48.838;2.402;2022-09-09T04:08:42;9.80;;;3.20;;
65853;SDS011;52627;48.838;2.402;2022-09-09T04:11:09;11.20;;;2.80;;
65853;SDS011;52627;48.838;2.402;2022-09-09T04:13:37;16.30;;;2.60;;
65853;SDS011;52627;48.838;2.402;2022-09-09T04:16:07;12.20;;;2.90;;
65853;SDS011;52627;48.838;2.402;2022-09-09T04:18:36;8.80;;;2.30;;
65853;SDS011;52627;48.838;2.402;2022-09-09T04:21:04;9.00;;;3.10;;
65853;SDS011;52627;48.838;2.402;2022-09-09T04:23:33;11.10;;;2.40;;
65853;SDS011;52627;48.838;2.402;2022-09-09T04:26:03;10.70;;;2.60;;
65853;SDS011;52627;48.838;2.402;2022-09-09T04:28:34;10.10;;;2.90;;
65853;SDS011;52627;48.838;2.402;2022-09-09T04:31:09;12.70;;;3.60;;
65853;SDS011;52627;48.838;2.402;2022-09-09T04:33:38;10.80;;;2.80;;
65853;SDS011;52627;48.838;2.402;2022-09-09T04:36:06;11.10;;;2.50;;
65853;SDS011;52627;48.838;2.402;2022-09-09T04:38:35;11.70;;;3.10;;
65853;SDS011;52627;48.838;2.402;2022-09-09T04:41:03;14.00;;;2.50;;
65853;SDS011;52627;48.838;2.402;2022-09-09T04:43:31;14.30;;;2.50;;
65853;SDS011;52627;48.838;2.402;2022-09-09T04:45:59;13.00;;;2.80;;
65853;SDS011;52627;48.838;2.402;2022-09-09T04:48:26;15.60;;;3.40;;
65853;SDS011;52627;48.838;2.402;2022-09-09T04:50:55;9.50;;;2.60;;
65853;SDS011;52627;48.838;2.402;2022-09-09T04:53:24;13.40;;;3.20;;
65853;SDS011;52627;48.838;2.402;2022-09-09T04:56:12;14.50;;;4.00;;
65853;SDS011;52627;48.838;2.402;2022-09-09T04:58:41;13.10;;;4.10;;
65853;SDS011;52627;48.838;2.402;2022-09-09T05:01:15;12.90;;;3.20;;
65853;SDS011;52627;48.838;2.402;2022-09-09T05:03:45;11.70;;;2.80;;
65853;SDS011;52627;48.838;2.402;2022-09-09T05:06:15;10.70;;;2.90;;
65853;SDS011;52627;48.838;2.402;2022-09-09T05:08:44;14.40;;;3.00;;
65853;SDS011;52627;48.838;2.402;2022-09-09T05:13:51;10.50;;;2.50;;
65853;SDS011;52627;48.838;2.402;2022-09-09T05:16:20;7.90;;;1.90;;
65853;SDS011;52627;48.838;2.402;2022-09-09T05:18:48;13.50;;;2.80;;
65853;SDS011;52627;48.838;2.402;2022-09-09T05:21:19;11.90;;;2.50;;
65853;SDS011;52627;48.838;2.402;2022-09-09T05:23:48;8.00;;;2.30;;
65853;SDS011;52627;48.838;2.402;2022-09-09T05:26:20;10.20;;;2.60;;
65853;SDS011;52627;48.838;2.402;2022-09-09T05:28:48;9.50;;;3.20;;
65853;SDS011;52627;48.838;2.402;2022-09-09T05:31:17;12.70;;;3.10;;
65853;SDS011;52627;48.838;2.402;2022-09-09T05:33:46;9.50;;;2.80;;
65853;SDS011;52627;48.838;2.402;2022-09-09T05:36:18;15.70;;;4.10;;
65853;SDS011;52627;48.838;2.402;2022-09-09T05:38:47;8.50;;;3.10;;
65853;SDS011;52627;48.838;2.402;2022-09-09T05:41:16;11.20;;;3.50;;
65853;SDS011;52627;48.838;2.402;2022-09-09T05:43:45;16.10;;;3.30;;
65853;SDS011;52627;48.838;2.402;2022-09-09T05:48:48;11.40;;;3.20;;
65853;SDS011;52627;48.838;2.402;2022-09-09T05:51:23;9.50;;;2.40;;
65853;SDS011;52627;48.838;2.402;2022-09-09T05:53:52;12.70;;;2.20;;
65853;SDS011;52627;48.838;2.402;2022-09-09T05:56:24;9.00;;;2.80;;
65853;SDS011;52627;48.838;2.402;2022-09-09T05:58:56;13.10;;;2.70;;
65853;SDS011;52627;48.838;2.402;2022-09-09T06:01:29;11.10;;;2.60;;
65853;SDS011;52627;48.838;2.402;2022-09-09T06:03:59;10.50;;;2.40;;
65853;SDS011;52627;48.838;2.402;2022-09-09T06:06:31;9.00;;;2.30;;
65853;SDS011;52627;48.838;2.402;2022-09-09T06:09:04;11.80;;;2.50;;
65853;SDS011;52627;48.838;2.402;2022-09-09T06:11:41;10.50;;;2.50;;
65853;SDS011;52627;48.838;2.402;2022-09-09T06:14:09;10.80;;;2.70;;
65853;SDS011;52627;48.838;2.402;2022-09-09T06:16:36;9.60;;;2.00;;
65853;SDS011;52627;48.838;2.402;2022-09-09T06:19:05;7.50;;;2.40;;
65853;SDS011;52627;48.838;2.402;2022-09-09T06:21:36;12.70;;;2.50;;
65853;SDS011;52627;48.838;2.402;2022-09-09T06:24:04;11.40;;;3.10;;
65853;SDS011;52627;48.838;2.402;2022-09-09T06:26:34;11.50;;;3.70;;
65853;SDS011;52627;48.838;2.402;2022-09-09T06:29:03;10.10;;;2.70;;
65853;SDS011;52627;48.838;2.402;2022-09-09T06:31:34;11.90;;;3.10;;
65853;SDS011;52627;48.838;2.402;2022-09-09T06:34:05;11.60;;;2.80;;
65853;SDS011;52627;48.838;2.402;2022-09-09T06:36:36;12.40;;;3.50;;
65853;SDS011;52627;48.838;2.402;2022-09-09T06:39:05;12.20;;;3.80;;
65853;SDS011;52627;48.838;2.402;2022-09-09T06:41:41;12.80;;;3.10;;
65853;SDS011;52627;48.838;2.402;2022-09-09T06:44:10;8.80;;;2.90;;
65853;SDS011;52627;48.838;2.402;2022-09-09T06:46:41;11.30;;;2.70;;
65853;SDS011;52627;48.838;2.402;2022-09-09T06:49:09;11.00;;;3.20;;
65853;SDS011;52627;48.838;2.402;2022-09-09T06:51:37;11.20;;;3.00;;
65853;SDS011;52627;48.838;2.402;2022-09-09T06:54:11;9.70;;;2.80;;
65853;SDS011;52627;48.838;2.402;2022-09-09T06:56:40;11.60;;;2.90;;
65853;SDS011;52627;48.838;2.402;2022-09-09T06:59:10;11.80;;;2.60;;
65853;SDS011;52627;48.838;2.402;2022-09-09T07:01:41;10.10;;;2.50;;
65853;SDS011;52627;48.838;2.402;2022-09-09T07:04:11;9.40;;;2.50;;
65853;SDS011;52627;48.838;2.402;2022-09-09T07:06:42;8.20;;;2.60;;
65853;SDS011;52627;48.838;2.402;2022-09-09T07:09:14;6.50;;;2.10;;
65853;SDS011;52627;48.838;2.402;2022-09-09T07:11:45;10.20;;;2.60;;
65853;SDS011;52627;48.838;2.402;2022-09-09T07:14:14;11.40;;;2.60;;
65853;SDS011;52627;48.838;2.402;2022-09-09T07:16:43;10.10;;;2.20;;
65853;SDS011;52627;48.838;2.402;2022-09-09T07:19:12;9.90;;;2.50;;
65853;SDS011;52627;48.838;2.402;2022-09-09T07:21:42;6.80;;;1.90;;
65853;SDS011;52627;48.838;2.402;2022-09-09T07:24:10;7.50;;;2.70;;
65853;SDS011;52627;48.838;2.402;2022-09-09T07:26:40;6.40;;;2.20;;
65853;SDS011;52627;48.838;2.402;2022-09-09T07:29:08;11.00;;;2.40;;
65853;SDS011;52627;48.838;2.402;2022-09-09T07:31:37;11.30;;;1.80;;
65853;SDS011;52627;48.838;2.402;2022-09-09T07:34:07;10.30;;;2.10;;
65853;SDS011;52627;48.838;2.402;2022-09-09T07:36:37;8.40;;;2.20;;
65853;SDS011;52627;48.838;2.402;2022-09-09T07:39:08;7.10;;;1.90;;
65853;SDS011;52627;48.838;2.402;2022-09-09T07:41:42;11.40;;;1.80;;
65853;SDS011;52627;48.838;2.402;2022-09-09T07:44:14;8.50;;;1.90;;
65853;SDS011;52627;48.838;2.402;2022-09-09T07:46:43;8.50;;;1.90;;
65853;SDS011;52627;48.838;2.402;2022-09-09T07:49:13;10.60;;;2.10;;
65853;SDS011;52627;48.838;2.402;2022-09-09T07:51:43;6.50;;;2.10;;
65853;SDS011;52627;48.838;2.402;2022-09-09T07:54:14;6.70;;;1.70;;
65853;SDS011;52627;48.838;2.402;2022-09-09T07:56:43;8.80;;;1.90;;
65853;SDS011;52627;48.838;2.402;2022-09-09T07:59:10;10.50;;;1.60;;
65853;SDS011;52627;48.838;2.402;2022-09-09T08:01:41;8.50;;;1.60;;
65853;SDS011;52627;48.838;2.402;2022-09-09T08:04:15;9.10;;;1.80;;
65853;SDS011;52627;48.838;2.402;2022-09-09T08:06:51;8.50;;;1.60;;
65853;SDS011;52627;48.838;2.402;2022-09-09T08:09:20;8.40;;;2.50;;
65853;SDS011;52627;48.838;2.402;2022-09-09T08:11:48;6.50;;;1.70;;
65853;SDS011;52627;48.838;2.402;2022-09-09T08:14:16;7.70;;;1.60;;
65853;SDS011;52627;48.838;2.402;2022-09-09T08:16:46;8.70;;;1.70;;
65853;SDS011;52627;48.838;2.402;2022-09-09T08:19:15;7.50;;;1.50;;
65853;SDS011;52627;48.838;2.402;2022-09-09T08:21:44;8.30;;;2.00;;
65853;SDS011;52627;48.838;2.402;2022-09-09T08:24:12;8.30;;;1.60;;
65853;SDS011;52627;48.838;2.402;2022-09-09T08:26:44;7.40;;;1.60;;
65853;SDS011;52627;48.838;2.402;2022-09-09T08:29:15;7.10;;;1.50;;
65853;SDS011;52627;48.838;2.402;2022-09-09T08:31:48;8.30;;;2.00;;
65853;SDS011;52627;48.838;2.402;2022-09-09T08:34:17;6.90;;;1.50;;
65853;SDS011;52627;48.838;2.402;2022-09-09T08:36:49;8.00;;;2.00;;
65853;SDS011;52627;48.838;2.402;2022-09-09T08:39:19;9.30;;;1.70;;
65853;SDS011;52627;48.838;2.402;2022-09-09T08:50:57;6.00;;;1.50;;
65853;SDS011;52627;48.838;2.402;2022-09-09T08:53:23;7.80;;;1.70;;
65853;SDS011;52627;48.838;2.402;2022-09-09T08:55:58;7.80;;;1.60;;
65853;SDS011;52627;48.838;2.402;2022-09-09T08:58:33;8.50;;;1.50;;
65853;SDS011;52627;48.838;2.402;2022-09-09T09:04:03;7.10;;;1.60;;
65853;SDS011;52627;48.838;2.402;2022-09-09T09:10:34;6.90;;;1.60;;
65853;SDS011;52627;48.838;2.402;2022-09-09T09:13:17;9.50;;;1.80;;
65853;SDS011;52627;48.838;2.402;2022-09-09T09:15:59;6.10;;;1.50;;
65853;SDS011;52627;48.838;2.402;2022-09-09T09:18:29;6.50;;;1.50;;
65853;SDS011;52627;48.838;2.402;2022-09-09T09:21:15;8.60;;;1.40;;
65853;SDS011;52627;48.838;2.402;2022-09-09T09:23:54;7.90;;;1.60;;
65853;SDS011;52627;48.838;2.402;2022-09-09T09:26:26;8.90;;;1.40;;
65853;SDS011;52627;48.838;2.402;2022-09-09T09:28:58;8.00;;;1.70;;
65853;SDS011;52627;48.838;2.402;2022-09-09T09:31:26;6.60;;;1.60;;
65853;SDS011;52627;48.838;2.402;2022-09-09T09:33:55;7.00;;;2.00;;
65853;SDS011;52627;48.838;2.402;2022-09-09T09:36:33;9.80;;;1.70;;
65853;SDS011;52627;48.838;2.402;2022-09-09T09:42:12;7.20;;;1.50;;
65853;SDS011;52627;48.838;2.402;2022-09-09T09:44:47;9.70;;;1.60;;
65853;SDS011;52627;48.838;2.402;2022-09-09T09:47:17;6.40;;;1.50;;
65853;SDS011;52627;48.838;2.402;2022-09-09T09:49:55;10.00;;;1.80;;
65853;SDS011;52627;48.838;2.402;2022-09-09T09:52:27;5.70;;;1.40;;
65853;SDS011;52627;48.838;2.402;2022-09-09T09:57:32;6.60;;;1.60;;
65853;SDS011;52627;48.838;2.402;2022-09-09T10:02:44;7.00;;;1.50;;
65853;SDS011;52627;48.838;2.402;2022-09-09T10:05:24;5.20;;;1.50;;
65853;SDS011;52627;48.838;2.402;2022-09-09T10:08:16;7.80;;;1.50;;
65853;SDS011;52627;48.838;2.402;2022-09-09T10:17:01;4.40;;;1.40;;
65853;SDS011;52627;48.838;2.402;2022-09-09T10:19:35;8.80;;;1.70;;
65853;SDS011;52627;48.838;2.402;2022-09-09T10:34:56;7.60;;;1.50;;
65853;SDS011;52627;48.838;2.402;2022-09-09T10:40:37;5.90;;;1.70;;
65853;SDS011;52627;48.838;2.402;2022-09-09T10:46:22;6.60;;;1.40;;
65853;SDS011;52627;48.838;2.402;2022-09-09T10:52:15;6.20;;;2.00;;
65853;SDS011;52627;48.838;2.402;2022-09-09T10:55:09;5.40;;;1.50;;
65853;SDS011;52627;48.838;2.402;2022-09-09T10:57:41;5.60;;;1.50;;
65853;SDS011;52627;48.838;2.402;2022-09-09T11:00:23;8.40;;;1.60;;
65853;SDS011;52627;48.838;2.402;2022-09-09T11:02:58;5.60;;;1.30;;
65853;SDS011;52627;48.838;2.402;2022-09-09T11:05:42;5.80;;;1.60;;
65853;SDS011;52627;48.838;2.402;2022-09-09T11:08:15;6.30;;;1.40;;
65853;SDS011;52627;48.838;2.402;2022-09-09T11:11:07;5.60;;;1.70;;
65853;SDS011;52627;48.838;2.402;2022-09-09T11:13:55;8.60;;;1.80;;
65853;SDS011;52627;48.838;2.402;2022-09-09T11:16:46;5.20;;;1.50;;
65853;SDS011;52627;48.838;2.402;2022-09-09T11:19:41;5.90;;;1.40;;
65853;SDS011;52627;48.838;2.402;2022-09-09T11:25:14;5.70;;;1.60;;
65853;SDS011;52627;48.838;2.402;2022-09-09T11:42:28;7.30;;;1.80;;
65853;SDS011;52627;48.838;2.402;2022-09-09T11:44:55;5.80;;;1.60;;
65853;SDS011;52627;48.838;2.402;2022-09-09T11:47:26;6.70;;;1.90;;
65853;SDS011;52627;48.838;2.402;2022-09-09T11:52:47;7.00;;;1.70;;
65853;SDS011;52627;48.838;2.402;2022-09-09T11:58:00;8.10;;;1.80;;
65853;SDS011;52627;48.838;2.402;2022-09-09T12:00:57;6.50;;;1.60;;
65853;SDS011;52627;48.838;2.402;2022-09-09T12:03:47;6.30;;;1.70;;
65853;SDS011;52627;48.838;2.402;2022-09-09T12:08:58;5.90;;;1.30;;
65853;SDS011;52627;48.838;2.402;2022-09-09T12:11:35;3.40;;;1.40;;
65853;SDS011;52627;48.838;2.402;2022-09-09T12:14:02;5.80;;;1.70;;
65853;SDS011;52627;48.838;2.402;2022-09-09T12:16:35;5.30;;;1.50;;
65853;SDS011;52627;48.838;2.402;2022-09-09T12:19:14;5.60;;;2.00;;
65853;SDS011;52627;48.838;2.402;2022-09-09T12:25:52;5.80;;;1.40;;
65853;SDS011;52627;48.838;2.402;2022-09-09T12:28:56;3.80;;;1.70;;
65853;SDS011;52627;48.838;2.402;2022-09-09T12:34:16;6.20;;;1.50;;
65853;SDS011;52627;48.838;2.402;2022-09-09T12:36:51;6.30;;;1.80;;
65853;SDS011;52627;48.838;2.402;2022-09-09T12:39:35;5.80;;;1.80;;
65853;SDS011;52627;48.838;2.402;2022-09-09T12:42:23;7.50;;;1.80;;
65853;SDS011;52627;48.838;2.402;2022-09-09T12:44:59;8.40;;;1.80;;
65853;SDS011;52627;48.838;2.402;2022-09-09T12:47:38;6.50;;;1.70;;
65853;SDS011;52627;48.838;2.402;2022-09-09T12:50:21;5.80;;;2.30;;
65853;SDS011;52627;48.838;2.402;2022-09-09T12:52:51;6.90;;;1.80;;
65853;SDS011;52627;48.838;2.402;2022-09-09T12:55:24;6.30;;;1.60;;
65853;SDS011;52627;48.838;2.402;2022-09-09T12:57:54;7.70;;;2.30;;
65853;SDS011;52627;48.838;2.402;2022-09-09T13:00:24;8.90;;;2.10;;
65853;SDS011;52627;48.838;2.402;2022-09-09T13:02:57;14.20;;;2.00;;
65853;SDS011;52627;48.838;2.402;2022-09-09T13:05:37;7.80;;;1.60;;
65853;SDS011;52627;48.838;2.402;2022-09-09T13:08:10;5.60;;;1.60;;
65853;SDS011;52627;48.838;2.402;2022-09-09T13:13:28;9.20;;;1.80;;
65853;SDS011;52627;48.838;2.402;2022-09-09T13:15:59;5.70;;;1.60;;
65853;SDS011;52627;48.838;2.402;2022-09-09T13:18:34;8.50;;;1.90;;
65853;SDS011;52627;48.838;2.402;2022-09-09T13:21:03;6.40;;;1.90;;
65853;SDS011;52627;48.838;2.402;2022-09-09T13:23:33;6.80;;;2.10;;
65853;SDS011;52627;48.838;2.402;2022-09-09T13:26:23;7.50;;;1.90;;
65853;SDS011;52627;48.838;2.402;2022-09-09T13:28:53;8.40;;;2.00;;
65853;SDS011;52627;48.838;2.402;2022-09-09T13:31:23;8.90;;;2.10;;
65853;SDS011;52627;48.838;2.402;2022-09-09T13:33:54;8.30;;;2.50;;
65853;SDS011;52627;48.838;2.402;2022-09-09T13:36:29;7.80;;;1.90;;
65853;SDS011;52627;48.838;2.402;2022-09-09T13:38:59;8.90;;;2.30;;
65853;SDS011;52627;48.838;2.402;2022-09-09T13:41:34;6.10;;;1.50;;
65853;SDS011;52627;48.838;2.402;2022-09-09T13:44:03;5.50;;;1.80;;
65853;SDS011;52627;48.838;2.402;2022-09-09T13:46:38;6.50;;;1.50;;
65853;SDS011;52627;48.838;2.402;2022-09-09T13:51:38;5.50;;;1.40;;
65853;SDS011;52627;48.838;2.402;2022-09-09T13:54:13;4.20;;;1.40;;
65853;SDS011;52627;48.838;2.402;2022-09-09T13:56:42;5.00;;;1.60;;
65853;SDS011;52627;48.838;2.402;2022-09-09T13:59:12;7.00;;;1.80;;
65853;SDS011;52627;48.838;2.402;2022-09-09T14:01:41;6.30;;;1.40;;
65853;SDS011;52627;48.838;2.402;2022-09-09T14:04:09;5.40;;;1.50;;
65853;SDS011;52627;48.838;2.402;2022-09-09T14:06:39;5.80;;;1.60;;
65853;SDS011;52627;48.838;2.402;2022-09-09T14:09:11;6.30;;;1.50;;
65853;SDS011;52627;48.838;2.402;2022-09-09T14:11:41;5.00;;;1.30;;
65853;SDS011;52627;48.838;2.402;2022-09-09T14:14:10;5.70;;;1.40;;
65853;SDS011;52627;48.838;2.402;2022-09-09T14:16:37;6.30;;;1.70;;
65853;SDS011;52627;48.838;2.402;2022-09-09T14:19:04;5.00;;;2.30;;
65853;SDS011;52627;48.838;2.402;2022-09-09T14:21:32;6.20;;;1.80;;
65853;SDS011;52627;48.838;2.402;2022-09-09T14:23:59;8.20;;;1.80;;
65853;SDS011;52627;48.838;2.402;2022-09-09T14:26:27;10.50;;;1.90;;
65853;SDS011;52627;48.838;2.402;2022-09-09T14:28:57;6.60;;;1.90;;
65853;SDS011;52627;48.838;2.402;2022-09-09T14:31:25;8.40;;;2.00;;
65853;SDS011;52627;48.838;2.402;2022-09-09T14:33:53;6.60;;;2.00;;
65853;SDS011;52627;48.838;2.402;2022-09-09T14:36:20;8.50;;;2.00;;
65853;SDS011;52627;48.838;2.402;2022-09-09T14:38:48;6.60;;;1.90;;
65853;SDS011;52627;48.838;2.402;2022-09-09T14:41:17;6.80;;;2.20;;
65853;SDS011;52627;48.838;2.402;2022-09-09T14:43:49;7.70;;;1.80;;
65853;SDS011;52627;48.838;2.402;2022-09-09T14:46:18;6.70;;;1.90;;
65853;SDS011;52627;48.838;2.402;2022-09-09T14:51:21;5.80;;;1.60;;
65853;SDS011;52627;48.838;2.402;2022-09-09T14:53:52;5.30;;;1.90;;
65853;SDS011;52627;48.838;2.402;2022-09-09T14:56:22;5.50;;;1.60;;
65853;SDS011;52627;48.838;2.402;2022-09-09T15:01:24;6.10;;;1.50;;
65853;SDS011;52627;48.838;2.402;2022-09-09T15:03:56;4.40;;;1.40;;
65853;SDS011;52627;48.838;2.402;2022-09-09T15:06:27;8.70;;;1.80;;
65853;SDS011;52627;48.838;2.402;2022-09-09T15:11:32;4.00;;;1.40;;
65853;SDS011;52627;48.838;2.402;2022-09-09T15:14:06;5.50;;;2.10;;
65853;SDS011;52627;48.838;2.402;2022-09-09T15:16:35;5.30;;;1.50;;
65853;SDS011;52627;48.838;2.402;2022-09-09T15:19:03;6.70;;;1.20;;
65853;SDS011;52627;48.838;2.402;2022-09-09T15:21:33;4.20;;;1.20;;
65853;SDS011;52627;48.838;2.402;2022-09-09T15:26:29;3.90;;;1.50;;
65853;SDS011;52627;48.838;2.402;2022-09-09T15:28:57;4.90;;;1.60;;
65853;SDS011;52627;48.838;2.402;2022-09-09T15:31:28;4.60;;;1.70;;
65853;SDS011;52627;48.838;2.402;2022-09-09T15:34:00;4.90;;;1.30;;
65853;SDS011;52627;48.838;2.402;2022-09-09T15:36:31;5.00;;;1.40;;
65853;SDS011;52627;48.838;2.402;2022-09-09T15:39:03;4.20;;;1.20;;
65853;SDS011;52627;48.838;2.402;2022-09-09T15:41:32;5.20;;;1.50;;
65853;SDS011;52627;48.838;2.402;2022-09-09T15:44:00;5.60;;;1.40;;
65853;SDS011;52627;48.838;2.402;2022-09-09T15:46:37;4.50;;;1.50;;
65853;SDS011;52627;48.838;2.402;2022-09-09T15:49:19;7.10;;;1.70;;
65853;SDS011;52627;48.838;2.402;2022-09-09T15:51:53;4.80;;;1.30;;
65853;SDS011;52627;48.838;2.402;2022-09-09T15:54:32;4.80;;;1.60;;
65853;SDS011;52627;48.838;2.402;2022-09-09T15:57:04;7.00;;;1.80;;
65853;SDS011;52627;48.838;2.402;2022-09-09T16:02:01;6.40;;;1.70;;
65853;SDS011;52627;48.838;2.402;2022-09-09T16:04:29;5.50;;;1.50;;
65853;SDS011;52627;48.838;2.402;2022-09-09T16:06:58;5.30;;;1.30;;
65853;SDS011;52627;48.838;2.402;2022-09-09T16:09:27;6.00;;;1.50;;
65853;SDS011;52627;48.838;2.402;2022-09-09T16:11:57;4.60;;;1.30;;
65853;SDS011;52627;48.838;2.402;2022-09-09T16:14:28;4.80;;;1.40;;
65853;SDS011;52627;48.838;2.402;2022-09-09T16:17:02;5.30;;;1.40;;
65853;SDS011;52627;48.838;2.402;2022-09-09T16:19:31;4.90;;;1.60;;
65853;SDS011;52627;48.838;2.402;2022-09-09T16:22:00;5.60;;;1.70;;
65853;SDS011;52627;48.838;2.402;2022-09-09T16:24:30;5.30;;;1.60;;
65853;SDS011;52627;48.838;2.402;2022-09-09T16:26:57;6.50;;;1.50;;
65853;SDS011;52627;48.838;2.402;2022-09-09T16:29:25;5.10;;;1.50;;
65853;SDS011;52627;48.838;2.402;2022-09-09T16:31:54;4.90;;;1.30;;
65853;SDS011;52627;48.838;2.402;2022-09-09T16:34:28;5.20;;;1.30;;
65853;SDS011;52627;48.838;2.402;2022-09-09T16:36:56;6.20;;;1.80;;
65853;SDS011;52627;48.838;2.402;2022-09-09T16:39:23;6.20;;;1.40;;
65853;SDS011;52627;48.838;2.402;2022-09-09T16:41:51;4.40;;;1.30;;
65853;SDS011;52627;48.838;2.402;2022-09-09T16:44:19;4.10;;;1.80;;
65853;SDS011;52627;48.838;2.402;2022-09-09T16:46:48;4.70;;;1.60;;
65853;SDS011;52627;48.838;2.402;2022-09-09T16:49:25;6.80;;;1.80;;
65853;SDS011;52627;48.838;2.402;2022-09-09T16:51:57;6.50;;;1.90;;
65853;SDS011;52627;48.838;2.402;2022-09-09T16:54:25;6.70;;;1.70;;
65853;SDS011;52627;48.838;2.402;2022-09-09T16:56:54;6.70;;;2.00;;
65853;SDS011;52627;48.838;2.402;2022-09-09T16:59:22;5.90;;;1.60;;
65853;SDS011;52627;48.838;2.402;2022-09-09T17:01:51;5.90;;;1.80;;
65853;SDS011;52627;48.838;2.402;2022-09-09T17:04:25;3.90;;;1.40;;
65853;SDS011;52627;48.838;2.402;2022-09-09T17:06:54;4.90;;;1.30;;
65853;SDS011;52627;48.838;2.402;2022-09-09T17:09:23;3.50;;;1.30;;
65853;SDS011;52627;48.838;2.402;2022-09-09T17:11:50;5.30;;;1.80;;
65853;SDS011;52627;48.838;2.402;2022-09-09T17:14:22;4.50;;;1.50;;
65853;SDS011;52627;48.838;2.402;2022-09-09T17:16:49;5.50;;;1.70;;
65853;SDS011;52627;48.838;2.402;2022-09-09T17:19:17;6.30;;;1.50;;
65853;SDS011;52627;48.838;2.402;2022-09-09T17:21:45;5.60;;;1.80;;
65853;SDS011;52627;48.838;2.402;2022-09-09T17:24:35;6.00;;;1.90;;
65853;SDS011;52627;48.838;2.402;2022-09-09T17:27:06;6.60;;;2.30;;
65853;SDS011;52627;48.838;2.402;2022-09-09T17:29:33;5.60;;;1.80;;
65853;SDS011;52627;48.838;2.402;2022-09-09T17:32:03;3.80;;;1.20;;
65853;SDS011;52627;48.838;2.402;2022-09-09T17:34:33;5.70;;;1.30;;
65853;SDS011;52627;48.838;2.402;2022-09-09T17:37:01;2.70;;;1.20;;
65853;SDS011;52627;48.838;2.402;2022-09-09T17:39:29;3.70;;;1.40;;
65853;SDS011;52627;48.838;2.402;2022-09-09T17:41:56;6.30;;;2.10;;